FAHS

Hoedspruit Air Force Base Airport

Hoedspruit, South Africa
METAR FAHS 242100Z AUTO 17014KT //// // ////// 22/18 Q1021
Observed Flight Rules
Sep-24 @ 21:00 UTC (51 minutes ago)
Wind
170° at 14 knots
Temperatures Readings
Current 22°C / 72°F
Dewpoint 18°C / 64°F
Humidity 78%
Altimeter 30.15" Hg
Pressure 1021 hPa
Elevation 500
METAR FAHS 242100Z AUTO 17014KT //// // ////// 22/18 Q1021
Observed Flight Rules
Sep-24 @ 21:00 UTC
(51 minutes ago)
Wind
170° at 14 knots
Temperature Dewpoint
22°C / 72°F 18°C / 64°F
Humidity Altimeter Pressure
78% 30.15" Hg 1021 hPa